sensor_id;sensor_type;location;lat;lon;timestamp;pressure;altitude;pressure_sealevel;temperature
69545;BMP180;56766;52.260;20.746;2022-08-03T00:02:02;100744.00;;;16.40
69545;BMP180;56766;52.260;20.746;2022-08-03T00:04:29;100741.60;;;16.40
69545;BMP180;56766;52.260;20.746;2022-08-03T00:06:56;100744.20;;;16.32
69545;BMP180;56766;52.260;20.746;2022-08-03T00:09:22;100741.20;;;16.36
69545;BMP180;56766;52.260;20.746;2022-08-03T00:11:49;100741.40;;;16.36
69545;BMP180;56766;52.260;20.746;2022-08-03T00:14:16;100746.60;;;16.34
69545;BMP180;56766;52.260;20.746;2022-08-03T00:16:42;100745.60;;;16.36
69545;BMP180;56766;52.260;20.746;2022-08-03T00:19:09;100744.80;;;16.40
69545;BMP180;56766;52.260;20.746;2022-08-03T00:21:35;100749.80;;;16.40
69545;BMP180;56766;52.260;20.746;2022-08-03T00:24:03;100752.40;;;16.32
69545;BMP180;56766;52.260;20.746;2022-08-03T00:26:29;100746.80;;;16.30
69545;BMP180;56766;52.260;20.746;2022-08-03T00:28:57;100749.00;;;16.30
69545;BMP180;56766;52.260;20.746;2022-08-03T00:31:23;100747.60;;;16.22
69545;BMP180;56766;52.260;20.746;2022-08-03T00:33:50;100750.00;;;16.20
69545;BMP180;56766;52.260;20.746;2022-08-03T00:36:16;100748.20;;;16.10
69545;BMP180;56766;52.260;20.746;2022-08-03T00:38:43;100751.00;;;16.10
69545;BMP180;56766;52.260;20.746;2022-08-03T00:41:10;100752.20;;;16.10
69545;BMP180;56766;52.260;20.746;2022-08-03T00:43:36;100755.80;;;16.06
69545;BMP180;56766;52.260;20.746;2022-08-03T00:46:03;100752.40;;;16.00
69545;BMP180;56766;52.260;20.746;2022-08-03T00:48:30;100752.40;;;15.90
69545;BMP180;56766;52.260;20.746;2022-08-03T00:50:58;100752.60;;;15.90
69545;BMP180;56766;52.260;20.746;2022-08-03T00:53:27;100757.80;;;15.90
69545;BMP180;56766;52.260;20.746;2022-08-03T00:55:53;100761.20;;;15.86
69545;BMP180;56766;52.260;20.746;2022-08-03T00:58:20;100757.60;;;15.90
69545;BMP180;56766;52.260;20.746;2022-08-03T01:00:47;100757.60;;;15.90
69545;BMP180;56766;52.260;20.746;2022-08-03T01:03:14;100754.00;;;15.90
69545;BMP180;56766;52.260;20.746;2022-08-03T01:18:18;100763.20;;;15.70
69545;BMP180;56766;52.260;20.746;2022-08-03T01:20:56;100753.00;;;15.60
69545;BMP180;56766;52.260;20.746;2022-08-03T01:27:30;100760.80;;;15.50
69545;BMP180;56766;52.260;20.746;2022-08-03T01:29:58;100758.60;;;15.52
69545;BMP180;56766;52.260;20.746;2022-08-03T01:32:54;100757.00;;;15.56
69545;BMP180;56766;52.260;20.746;2022-08-03T01:35:44;100756.20;;;15.58
69545;BMP180;56766;52.260;20.746;2022-08-03T01:38:42;100755.40;;;15.50
69545;BMP180;56766;52.260;20.746;2022-08-03T01:41:30;100756.60;;;15.50
69545;BMP180;56766;52.260;20.746;2022-08-03T01:44:02;100749.00;;;15.50
69545;BMP180;56766;52.260;20.746;2022-08-03T01:46:34;100751.80;;;15.50
69545;BMP180;56766;52.260;20.746;2022-08-03T01:49:08;100744.40;;;15.40
69545;BMP180;56766;52.260;20.746;2022-08-03T01:51:41;100740.20;;;15.30
69545;BMP180;56766;52.260;20.746;2022-08-03T01:54:13;100740.80;;;15.30
69545;BMP180;56766;52.260;20.746;2022-08-03T01:56:42;100739.20;;;15.30
69545;BMP180;56766;52.260;20.746;2022-08-03T01:59:13;100739.20;;;15.30
69545;BMP180;56766;52.260;20.746;2022-08-03T02:01:43;100734.40;;;15.20
69545;BMP180;56766;52.260;20.746;2022-08-03T02:04:16;100732.60;;;15.20
69545;BMP180;56766;52.260;20.746;2022-08-03T02:06:47;100724.40;;;15.14
69545;BMP180;56766;52.260;20.746;2022-08-03T02:09:19;100722.20;;;15.12
69545;BMP180;56766;52.260;20.746;2022-08-03T02:11:48;100722.40;;;15.14
69545;BMP180;56766;52.260;20.746;2022-08-03T02:14:20;100729.80;;;15.18
69545;BMP180;56766;52.260;20.746;2022-08-03T02:16:49;100729.40;;;15.18
69545;BMP180;56766;52.260;20.746;2022-08-03T02:19:18;100728.20;;;15.16
69545;BMP180;56766;52.260;20.746;2022-08-03T02:21:47;100725.40;;;15.10
69545;BMP180;56766;52.260;20.746;2022-08-03T02:24:14;100723.80;;;15.10
69545;BMP180;56766;52.260;20.746;2022-08-03T02:26:44;100724.00;;;15.10
69545;BMP180;56766;52.260;20.746;2022-08-03T02:29:24;100724.00;;;15.10
69545;BMP180;56766;52.260;20.746;2022-08-03T02:31:57;100722.60;;;15.10
69545;BMP180;56766;52.260;20.746;2022-08-03T02:34:28;100722.60;;;15.10
69545;BMP180;56766;52.260;20.746;2022-08-03T02:36:58;100721.60;;;15.10
69545;BMP180;56766;52.260;20.746;2022-08-03T02:39:33;100727.00;;;15.10
69545;BMP180;56766;52.260;20.746;2022-08-03T02:42:01;100721.40;;;15.00
69545;BMP180;56766;52.260;20.746;2022-08-03T02:44:31;100727.00;;;15.00
69545;BMP180;56766;52.260;20.746;2022-08-03T02:47:09;100728.20;;;15.00
69545;BMP180;56766;52.260;20.746;2022-08-03T02:49:40;100727.00;;;15.00
69545;BMP180;56766;52.260;20.746;2022-08-03T02:52:12;100732.40;;;15.00
69545;BMP180;56766;52.260;20.746;2022-08-03T02:54:43;100730.60;;;15.00
69545;BMP180;56766;52.260;20.746;2022-08-03T02:57:15;100735.20;;;15.00
69545;BMP180;56766;52.260;20.746;2022-08-03T02:59:46;100730.60;;;15.10
69545;BMP180;56766;52.260;20.746;2022-08-03T03:02:15;100730.00;;;15.14
69545;BMP180;56766;52.260;20.746;2022-08-03T03:04:44;100733.40;;;15.10
69545;BMP180;56766;52.260;20.746;2022-08-03T03:07:17;100735.80;;;15.10
69545;BMP180;56766;52.260;20.746;2022-08-03T03:09:45;100738.40;;;15.00
69545;BMP180;56766;52.260;20.746;2022-08-03T03:12:15;100738.60;;;15.00
69545;BMP180;56766;52.260;20.746;2022-08-03T03:14:43;100739.20;;;15.10
69545;BMP180;56766;52.260;20.746;2022-08-03T03:17:11;100744.00;;;15.20
69545;BMP180;56766;52.260;20.746;2022-08-03T03:19:41;100740.80;;;15.30
69545;BMP180;56766;52.260;20.746;2022-08-03T03:22:13;100740.80;;;15.30
69545;BMP180;56766;52.260;20.746;2022-08-03T03:24:43;100743.20;;;15.40
69545;BMP180;56766;52.260;20.746;2022-08-03T03:27:13;100742.40;;;15.50
69545;BMP180;56766;52.260;20.746;2022-08-03T03:29:41;100746.00;;;15.50
69545;BMP180;56766;52.260;20.746;2022-08-03T03:32:08;100749.40;;;15.56
69545;BMP180;56766;52.260;20.746;2022-08-03T03:34:36;100747.00;;;15.60
69545;BMP180;56766;52.260;20.746;2022-08-03T03:37:03;100745.00;;;15.66
69545;BMP180;56766;52.260;20.746;2022-08-03T03:39:30;100747.00;;;15.76
69545;BMP180;56766;52.260;20.746;2022-08-03T03:41:59;100749.40;;;15.90
69545;BMP180;56766;52.260;20.746;2022-08-03T03:44:29;100751.20;;;16.00
69545;BMP180;56766;52.260;20.746;2022-08-03T03:46:57;100750.20;;;16.10
69545;BMP180;56766;52.260;20.746;2022-08-03T03:49:25;100750.60;;;16.20
69545;BMP180;56766;52.260;20.746;2022-08-03T03:51:54;100748.80;;;16.30
69545;BMP180;56766;52.260;20.746;2022-08-03T03:54:21;100751.00;;;16.40
69545;BMP180;56766;52.260;20.746;2022-08-03T03:56:48;100749.40;;;16.60
69545;BMP180;56766;52.260;20.746;2022-08-03T03:59:14;100752.60;;;16.70
69545;BMP180;56766;52.260;20.746;2022-08-03T04:01:41;100752.80;;;16.88
69545;BMP180;56766;52.260;20.746;2022-08-03T04:04:08;100754.80;;;16.96
69545;BMP180;56766;52.260;20.746;2022-08-03T04:06:54;100762.20;;;17.00
69545;BMP180;56766;52.260;20.746;2022-08-03T04:09:42;100761.80;;;17.00
69545;BMP180;56766;52.260;20.746;2022-08-03T04:12:56;100764.00;;;17.10
69545;BMP180;56766;52.260;20.746;2022-08-03T04:15:30;100766.00;;;17.20
69545;BMP180;56766;52.260;20.746;2022-08-03T04:18:00;100766.80;;;17.20
69545;BMP180;56766;52.260;20.746;2022-08-03T04:20:31;100769.20;;;17.20
69545;BMP180;56766;52.260;20.746;2022-08-03T04:23:01;100777.80;;;17.30
69545;BMP180;56766;52.260;20.746;2022-08-03T04:25:33;100775.40;;;17.30
69545;BMP180;56766;52.260;20.746;2022-08-03T04:28:03;100778.80;;;17.40
69545;BMP180;56766;52.260;20.746;2022-08-03T04:30:35;100777.20;;;17.50
69545;BMP180;56766;52.260;20.746;2022-08-03T04:33:03;100783.80;;;17.60
69545;BMP180;56766;52.260;20.746;2022-08-03T04:35:33;100782.80;;;17.70
69545;BMP180;56766;52.260;20.746;2022-08-03T04:38:06;100791.40;;;17.80
69545;BMP180;56766;52.260;20.746;2022-08-03T04:40:35;100795.40;;;17.90
69545;BMP180;56766;52.260;20.746;2022-08-03T04:43:05;100789.00;;;18.00
69545;BMP180;56766;52.260;20.746;2022-08-03T04:45:35;100788.20;;;18.10
69545;BMP180;56766;52.260;20.746;2022-08-03T04:48:04;100793.80;;;18.20
69545;BMP180;56766;52.260;20.746;2022-08-03T04:50:31;100789.60;;;18.30
69545;BMP180;56766;52.260;20.746;2022-08-03T04:52:58;100794.20;;;18.40
69545;BMP180;56766;52.260;20.746;2022-08-03T04:55:30;100796.80;;;18.50
69545;BMP180;56766;52.260;20.746;2022-08-03T04:58:00;100798.00;;;18.60
69545;BMP180;56766;52.260;20.746;2022-08-03T05:00:27;100801.20;;;18.74
69545;BMP180;56766;52.260;20.746;2022-08-03T05:02:54;100801.00;;;18.90
69545;BMP180;56766;52.260;20.746;2022-08-03T05:05:22;100797.00;;;19.00
69545;BMP180;56766;52.260;20.746;2022-08-03T05:07:49;100802.40;;;19.10
69545;BMP180;56766;52.260;20.746;2022-08-03T05:10:16;100800.20;;;19.10
69545;BMP180;56766;52.260;20.746;2022-08-03T05:12:47;100799.40;;;19.10
69545;BMP180;56766;52.260;20.746;2022-08-03T05:15:14;100803.80;;;19.10
69545;BMP180;56766;52.260;20.746;2022-08-03T05:17:41;100807.20;;;19.20
69545;BMP180;56766;52.260;20.746;2022-08-03T05:20:09;100803.60;;;19.48
69545;BMP180;56766;52.260;20.746;2022-08-03T05:22:36;100811.60;;;19.80
69545;BMP180;56766;52.260;20.746;2022-08-03T05:25:03;100810.40;;;20.10
69545;BMP180;56766;52.260;20.746;2022-08-03T05:27:30;100810.20;;;20.30
69545;BMP180;56766;52.260;20.746;2022-08-03T05:29:56;100808.20;;;20.20
69545;BMP180;56766;52.260;20.746;2022-08-03T05:32:24;100816.80;;;20.10
69545;BMP180;56766;52.260;20.746;2022-08-03T05:34:50;100819.80;;;20.00
69545;BMP180;56766;52.260;20.746;2022-08-03T05:37:17;100823.60;;;19.90
69545;BMP180;56766;52.260;20.746;2022-08-03T05:39:44;100824.20;;;20.00
69545;BMP180;56766;52.260;20.746;2022-08-03T05:42:10;100816.80;;;20.00
69545;BMP180;56766;52.260;20.746;2022-08-03T05:44:37;100821.60;;;20.00
69545;BMP180;56766;52.260;20.746;2022-08-03T05:47:04;100823.20;;;19.90
69545;BMP180;56766;52.260;20.746;2022-08-03T05:49:31;100822.80;;;19.90
69545;BMP180;56766;52.260;20.746;2022-08-03T05:51:58;100825.40;;;19.88
69545;BMP180;56766;52.260;20.746;2022-08-03T05:54:24;100823.80;;;19.80
69545;BMP180;56766;52.260;20.746;2022-08-03T05:56:51;100827.00;;;19.86
69545;BMP180;56766;52.260;20.746;2022-08-03T05:59:18;100829.60;;;20.00
69545;BMP180;56766;52.260;20.746;2022-08-03T06:01:45;100828.20;;;20.30
69545;BMP180;56766;52.260;20.746;2022-08-03T06:04:12;100832.20;;;20.60
69545;BMP180;56766;52.260;20.746;2022-08-03T06:06:39;100831.60;;;20.90
69545;BMP180;56766;52.260;20.746;2022-08-03T06:09:05;100829.40;;;21.00
69545;BMP180;56766;52.260;20.746;2022-08-03T06:11:32;100834.40;;;21.10
69545;BMP180;56766;52.260;20.746;2022-08-03T06:13:59;100828.60;;;21.20
69545;BMP180;56766;52.260;20.746;2022-08-03T06:16:25;100835.60;;;21.30
69545;BMP180;56766;52.260;20.746;2022-08-03T06:18:52;100834.00;;;21.40
69545;BMP180;56766;52.260;20.746;2022-08-03T06:21:18;100836.20;;;21.40
69545;BMP180;56766;52.260;20.746;2022-08-03T06:23:45;100836.80;;;21.50
69545;BMP180;56766;52.260;20.746;2022-08-03T06:26:13;100842.80;;;21.62
69545;BMP180;56766;52.260;20.746;2022-08-03T06:28:39;100843.60;;;21.80
69545;BMP180;56766;52.260;20.746;2022-08-03T06:31:06;100841.20;;;21.90
69545;BMP180;56766;52.260;20.746;2022-08-03T06:33:33;100839.00;;;22.02
69545;BMP180;56766;52.260;20.746;2022-08-03T06:35:59;100838.40;;;22.20
69545;BMP180;56766;52.260;20.746;2022-08-03T06:38:26;100841.40;;;22.30
69545;BMP180;56766;52.260;20.746;2022-08-03T06:40:52;100837.20;;;22.50
69545;BMP180;56766;52.260;20.746;2022-08-03T06:43:19;100832.40;;;22.64
69545;BMP180;56766;52.260;20.746;2022-08-03T06:45:46;100831.40;;;22.80
69545;BMP180;56766;52.260;20.746;2022-08-03T06:48:12;100829.00;;;23.00
69545;BMP180;56766;52.260;20.746;2022-08-03T06:50:41;100830.80;;;23.20
69545;BMP180;56766;52.260;20.746;2022-08-03T06:53:10;100828.80;;;23.30
69545;BMP180;56766;52.260;20.746;2022-08-03T06:55:36;100829.60;;;23.48
69545;BMP180;56766;52.260;20.746;2022-08-03T06:58:03;100825.60;;;23.60
69545;BMP180;56766;52.260;20.746;2022-08-03T07:00:30;100831.40;;;23.80
69545;BMP180;56766;52.260;20.746;2022-08-03T07:02:56;100832.20;;;24.00
69545;BMP180;56766;52.260;20.746;2022-08-03T07:05:23;100833.40;;;24.20
69545;BMP180;56766;52.260;20.746;2022-08-03T07:07:54;100831.60;;;24.30
69545;BMP180;56766;52.260;20.746;2022-08-03T07:10:22;100832.80;;;24.50
69545;BMP180;56766;52.260;20.746;2022-08-03T07:12:49;100835.80;;;24.70
69545;BMP180;56766;52.260;20.746;2022-08-03T07:15:15;100846.60;;;25.00
69545;BMP180;56766;52.260;20.746;2022-08-03T07:17:43;100842.00;;;25.30
69545;BMP180;56766;52.260;20.746;2022-08-03T07:20:11;100841.40;;;25.60
69545;BMP180;56766;52.260;20.746;2022-08-03T07:22:38;100836.40;;;25.80
69545;BMP180;56766;52.260;20.746;2022-08-03T07:25:05;100836.00;;;26.12
69545;BMP180;56766;52.260;20.746;2022-08-03T07:27:32;100837.80;;;26.46
69545;BMP180;56766;52.260;20.746;2022-08-03T07:29:59;100833.60;;;26.74
69545;BMP180;56766;52.260;20.746;2022-08-03T07:32:27;100831.40;;;27.00
69545;BMP180;56766;52.260;20.746;2022-08-03T07:34:56;100834.00;;;27.20
69545;BMP180;56766;52.260;20.746;2022-08-03T07:37:23;100833.00;;;27.40
69545;BMP180;56766;52.260;20.746;2022-08-03T07:39:50;100831.40;;;27.56
69545;BMP180;56766;52.260;20.746;2022-08-03T07:42:16;100831.00;;;27.60
69545;BMP180;56766;52.260;20.746;2022-08-03T07:44:44;100833.60;;;27.60
69545;BMP180;56766;52.260;20.746;2022-08-03T07:47:10;100831.20;;;27.60
69545;BMP180;56766;52.260;20.746;2022-08-03T07:49:39;100831.20;;;27.58
69545;BMP180;56766;52.260;20.746;2022-08-03T07:52:06;100842.00;;;27.50
69545;BMP180;56766;52.260;20.746;2022-08-03T07:54:51;100838.80;;;27.38
69545;BMP180;56766;52.260;20.746;2022-08-03T07:57:18;100836.60;;;27.20
69545;BMP180;56766;52.260;20.746;2022-08-03T07:59:46;100830.20;;;27.00
69545;BMP180;56766;52.260;20.746;2022-08-03T08:02:13;100829.80;;;26.70
69545;BMP180;56766;52.260;20.746;2022-08-03T08:04:40;100832.80;;;26.40
69545;BMP180;56766;52.260;20.746;2022-08-03T08:07:07;100841.40;;;26.16
69545;BMP180;56766;52.260;20.746;2022-08-03T08:09:34;100838.00;;;25.90
69545;BMP180;56766;52.260;20.746;2022-08-03T08:12:01;100841.80;;;25.70
69545;BMP180;56766;52.260;20.746;2022-08-03T08:14:28;100839.20;;;25.40
69545;BMP180;56766;52.260;20.746;2022-08-03T08:16:55;100840.60;;;25.20
69545;BMP180;56766;52.260;20.746;2022-08-03T08:19:21;100848.00;;;25.00
69545;BMP180;56766;52.260;20.746;2022-08-03T08:21:48;100851.00;;;24.84
69545;BMP180;56766;52.260;20.746;2022-08-03T08:24:15;100857.60;;;24.80
69545;BMP180;56766;52.260;20.746;2022-08-03T08:26:41;100859.40;;;24.90
69545;BMP180;56766;52.260;20.746;2022-08-03T08:29:08;100857.40;;;25.06
69545;BMP180;56766;52.260;20.746;2022-08-03T08:31:35;100853.40;;;25.20
69545;BMP180;56766;52.260;20.746;2022-08-03T08:34:01;100852.40;;;25.20
69545;BMP180;56766;52.260;20.746;2022-08-03T08:36:34;100851.60;;;25.40
69545;BMP180;56766;52.260;20.746;2022-08-03T08:39:01;100849.60;;;25.70
69545;BMP180;56766;52.260;20.746;2022-08-03T08:41:27;100848.80;;;25.80
69545;BMP180;56766;52.260;20.746;2022-08-03T08:43:54;100843.20;;;26.00
69545;BMP180;56766;52.260;20.746;2022-08-03T08:46:22;100842.00;;;26.20
69545;BMP180;56766;52.260;20.746;2022-08-03T08:48:50;100845.60;;;26.40
69545;BMP180;56766;52.260;20.746;2022-08-03T08:51:20;100842.00;;;26.50
69545;BMP180;56766;52.260;20.746;2022-08-03T08:53:52;100841.20;;;26.60
69545;BMP180;56766;52.260;20.746;2022-08-03T08:56:24;100849.20;;;26.70
69545;BMP180;56766;52.260;20.746;2022-08-03T08:58:59;100850.20;;;26.90
69545;BMP180;56766;52.260;20.746;2022-08-03T09:01:27;100852.60;;;27.00
69545;BMP180;56766;52.260;20.746;2022-08-03T09:03:54;100856.40;;;27.20
69545;BMP180;56766;52.260;20.746;2022-08-03T09:06:22;100853.40;;;27.40
69545;BMP180;56766;52.260;20.746;2022-08-03T09:08:50;100855.20;;;27.50
69545;BMP180;56766;52.260;20.746;2022-08-03T09:11:21;100852.40;;;27.70
69545;BMP180;56766;52.260;20.746;2022-08-03T09:13:49;100848.40;;;27.70
69545;BMP180;56766;52.260;20.746;2022-08-03T09:16:21;100847.60;;;27.70
69545;BMP180;56766;52.260;20.746;2022-08-03T09:18:52;100846.60;;;27.70
69545;BMP180;56766;52.260;20.746;2022-08-03T09:21:27;100846.00;;;27.70
69545;BMP180;56766;52.260;20.746;2022-08-03T09:24:01;100844.20;;;27.80
69545;BMP180;56766;52.260;20.746;2022-08-03T09:26:30;100844.60;;;27.90
69545;BMP180;56766;52.260;20.746;2022-08-03T09:29:07;100834.80;;;27.90
69545;BMP180;56766;52.260;20.746;2022-08-03T09:31:40;100831.80;;;28.00
69545;BMP180;56766;52.260;20.746;2022-08-03T09:34:10;100828.00;;;28.00
69545;BMP180;56766;52.260;20.746;2022-08-03T09:36:42;100832.40;;;28.00
69545;BMP180;56766;52.260;20.746;2022-08-03T09:39:16;100825.00;;;27.90
69545;BMP180;56766;52.260;20.746;2022-08-03T09:42:03;100829.00;;;28.00
69545;BMP180;56766;52.260;20.746;2022-08-03T09:44:39;100829.20;;;28.10
69545;BMP180;56766;52.260;20.746;2022-08-03T09:47:12;100830.40;;;28.20
69545;BMP180;56766;52.260;20.746;2022-08-03T09:49:41;100831.60;;;28.30
69545;BMP180;56766;52.260;20.746;2022-08-03T09:52:20;100831.20;;;28.40
69545;BMP180;56766;52.260;20.746;2022-08-03T09:54:55;100829.20;;;28.50
69545;BMP180;56766;52.260;20.746;2022-08-03T09:57:25;100826.00;;;28.52
69545;BMP180;56766;52.260;20.746;2022-08-03T09:59:53;100834.80;;;28.60
69545;BMP180;56766;52.260;20.746;2022-08-03T10:02:31;100830.20;;;28.74
69545;BMP180;56766;52.260;20.746;2022-08-03T10:05:17;100835.80;;;28.90
69545;BMP180;56766;52.260;20.746;2022-08-03T10:07:56;100830.20;;;29.10
69545;BMP180;56766;52.260;20.746;2022-08-03T10:10:23;100830.20;;;29.20
69545;BMP180;56766;52.260;20.746;2022-08-03T10:12:51;100829.40;;;29.20
69545;BMP180;56766;52.260;20.746;2022-08-03T10:15:18;100824.20;;;29.16
69545;BMP180;56766;52.260;20.746;2022-08-03T10:17:45;100829.60;;;29.20
69545;BMP180;56766;52.260;20.746;2022-08-03T10:20:11;100827.80;;;29.30
69545;BMP180;56766;52.260;20.746;2022-08-03T10:22:41;100832.20;;;29.40
69545;BMP180;56766;52.260;20.746;2022-08-03T10:25:13;100827.00;;;29.50
69545;BMP180;56766;52.260;20.746;2022-08-03T10:27:46;100826.40;;;29.50
69545;BMP180;56766;52.260;20.746;2022-08-03T10:30:16;100824.40;;;29.50
69545;BMP180;56766;52.260;20.746;2022-08-03T10:32:51;100829.00;;;29.60
69545;BMP180;56766;52.260;20.746;2022-08-03T10:35:23;100833.80;;;29.78
69545;BMP180;56766;52.260;20.746;2022-08-03T10:38:08;100836.40;;;29.90
69545;BMP180;56766;52.260;20.746;2022-08-03T10:40:39;100840.00;;;30.10
69545;BMP180;56766;52.260;20.746;2022-08-03T10:43:15;100835.40;;;30.20
69545;BMP180;56766;52.260;20.746;2022-08-03T10:45:45;100838.00;;;30.20
69545;BMP180;56766;52.260;20.746;2022-08-03T10:48:14;100833.80;;;30.12
69545;BMP180;56766;52.260;20.746;2022-08-03T10:50:42;100836.20;;;29.94
69545;BMP180;56766;52.260;20.746;2022-08-03T10:53:09;100836.00;;;29.90
69545;BMP180;56766;52.260;20.746;2022-08-03T10:55:45;100834.00;;;29.92
69545;BMP180;56766;52.260;20.746;2022-08-03T11:01:06;100839.60;;;30.00
69545;BMP180;56766;52.260;20.746;2022-08-03T11:06:25;100834.20;;;30.20
69545;BMP180;56766;52.260;20.746;2022-08-03T11:11:43;100824.40;;;30.30
69545;BMP180;56766;52.260;20.746;2022-08-03T11:14:11;100828.20;;;30.20
69545;BMP180;56766;52.260;20.746;2022-08-03T11:19:19;100834.20;;;30.50
69545;BMP180;56766;52.260;20.746;2022-08-03T11:27:21;100830.40;;;30.96
69545;BMP180;56766;52.260;20.746;2022-08-03T11:38:09;100812.40;;;31.20
69545;BMP180;56766;52.260;20.746;2022-08-03T11:40:51;100808.00;;;30.98
69545;BMP180;56766;52.260;20.746;2022-08-03T11:46:10;100805.20;;;30.70
69545;BMP180;56766;52.260;20.746;2022-08-03T11:48:49;100804.80;;;30.70
69545;BMP180;56766;52.260;20.746;2022-08-03T11:51:29;100807.60;;;30.50
69545;BMP180;56766;52.260;20.746;2022-08-03T11:54:04;100805.60;;;30.50
69545;BMP180;56766;52.260;20.746;2022-08-03T11:56:49;100810.40;;;30.70
69545;BMP180;56766;52.260;20.746;2022-08-03T11:59:16;100809.20;;;30.90
69545;BMP180;56766;52.260;20.746;2022-08-03T12:01:43;100809.80;;;31.10
69545;BMP180;56766;52.260;20.746;2022-08-03T12:04:11;100808.80;;;31.26
69545;BMP180;56766;52.260;20.746;2022-08-03T12:06:38;100803.80;;;31.40
69545;BMP180;56766;52.260;20.746;2022-08-03T12:09:21;100806.20;;;31.36
69545;BMP180;56766;52.260;20.746;2022-08-03T12:11:49;100801.20;;;31.24
69545;BMP180;56766;52.260;20.746;2022-08-03T12:14:18;100807.20;;;31.30
69545;BMP180;56766;52.260;20.746;2022-08-03T12:16:49;100809.40;;;31.30
69545;BMP180;56766;52.260;20.746;2022-08-03T12:19:15;100803.20;;;31.40
69545;BMP180;56766;52.260;20.746;2022-08-03T12:21:47;100802.40;;;31.50
69545;BMP180;56766;52.260;20.746;2022-08-03T12:24:15;100797.80;;;31.50
69545;BMP180;56766;52.260;20.746;2022-08-03T12:26:45;100794.80;;;31.50
69545;BMP180;56766;52.260;20.746;2022-08-03T12:29:21;100796.40;;;31.40
69545;BMP180;56766;52.260;20.746;2022-08-03T12:31:48;100799.40;;;31.40
69545;BMP180;56766;52.260;20.746;2022-08-03T12:34:15;100801.80;;;31.50
69545;BMP180;56766;52.260;20.746;2022-08-03T12:36:54;100802.00;;;31.60
69545;BMP180;56766;52.260;20.746;2022-08-03T12:39:25;100796.60;;;31.60
69545;BMP180;56766;52.260;20.746;2022-08-03T12:41:54;100800.20;;;31.70
69545;BMP180;56766;52.260;20.746;2022-08-03T12:44:34;100791.60;;;31.50
69545;BMP180;56766;52.260;20.746;2022-08-03T12:47:03;100794.80;;;31.40
69545;BMP180;56766;52.260;20.746;2022-08-03T12:52:12;100795.00;;;31.32
69545;BMP180;56766;52.260;20.746;2022-08-03T12:54:39;100789.00;;;31.30
69545;BMP180;56766;52.260;20.746;2022-08-03T12:57:10;100787.60;;;31.30
69545;BMP180;56766;52.260;20.746;2022-08-03T12:59:40;100783.60;;;31.40
69545;BMP180;56766;52.260;20.746;2022-08-03T13:02:18;100781.60;;;31.50
69545;BMP180;56766;52.260;20.746;2022-08-03T13:04:48;100785.80;;;31.60
69545;BMP180;56766;52.260;20.746;2022-08-03T13:07:17;100774.00;;;31.46
69545;BMP180;56766;52.260;20.746;2022-08-03T13:09:49;100768.00;;;31.10
69545;BMP180;56766;52.260;20.746;2022-08-03T13:12:23;100766.60;;;31.00
69545;BMP180;56766;52.260;20.746;2022-08-03T13:14:54;100763.40;;;30.90
69545;BMP180;56766;52.260;20.746;2022-08-03T13:17:22;100763.20;;;30.70
69545;BMP180;56766;52.260;20.746;2022-08-03T13:19:49;100770.20;;;30.70
69545;BMP180;56766;52.260;20.746;2022-08-03T13:22:21;100768.80;;;30.70
69545;BMP180;56766;52.260;20.746;2022-08-03T13:24:52;100768.80;;;30.70
69545;BMP180;56766;52.260;20.746;2022-08-03T13:27:22;100767.80;;;30.80
69545;BMP180;56766;52.260;20.746;2022-08-03T13:29:50;100770.40;;;30.80
69545;BMP180;56766;52.260;20.746;2022-08-03T13:32:19;100761.60;;;30.70
69545;BMP180;56766;52.260;20.746;2022-08-03T13:34:46;100761.20;;;30.70
69545;BMP180;56766;52.260;20.746;2022-08-03T13:37:14;100750.60;;;30.50
69545;BMP180;56766;52.260;20.746;2022-08-03T13:39:41;100754.00;;;30.50
69545;BMP180;56766;52.260;20.746;2022-08-03T13:42:08;100754.00;;;30.50
69545;BMP180;56766;52.260;20.746;2022-08-03T13:44:35;100750.40;;;30.40
69545;BMP180;56766;52.260;20.746;2022-08-03T13:47:03;100752.80;;;30.34
69545;BMP180;56766;52.260;20.746;2022-08-03T13:49:30;100759.80;;;30.40
69545;BMP180;56766;52.260;20.746;2022-08-03T13:51:57;100756.00;;;30.40
69545;BMP180;56766;52.260;20.746;2022-08-03T13:54:23;100753.80;;;30.40
69545;BMP180;56766;52.260;20.746;2022-08-03T13:56:50;100756.00;;;30.40
69545;BMP180;56766;52.260;20.746;2022-08-03T13:59:22;100757.00;;;30.40
69545;BMP180;56766;52.260;20.746;2022-08-03T14:01:52;100754.00;;;30.40
69545;BMP180;56766;52.260;20.746;2022-08-03T14:04:20;100754.20;;;30.40
69545;BMP180;56766;52.260;20.746;2022-08-03T14:06:47;100753.40;;;30.40
69545;BMP180;56766;52.260;20.746;2022-08-03T14:09:16;100756.40;;;30.26
69545;BMP180;56766;52.260;20.746;2022-08-03T14:11:43;100752.40;;;30.10
69545;BMP180;56766;52.260;20.746;2022-08-03T14:14:11;100751.40;;;30.10
69545;BMP180;56766;52.260;20.746;2022-08-03T14:16:38;100751.00;;;30.14
69545;BMP180;56766;52.260;20.746;2022-08-03T14:19:05;100746.20;;;30.20
69545;BMP180;56766;52.260;20.746;2022-08-03T14:21:33;100745.00;;;30.20
69545;BMP180;56766;52.260;20.746;2022-08-03T14:24:01;100744.20;;;30.00
69545;BMP180;56766;52.260;20.746;2022-08-03T14:26:28;100744.20;;;29.90
69545;BMP180;56766;52.260;20.746;2022-08-03T14:28:55;100737.40;;;30.00
69545;BMP180;56766;52.260;20.746;2022-08-03T14:31:22;100732.60;;;29.98
69545;BMP180;56766;52.260;20.746;2022-08-03T14:33:49;100732.20;;;29.90
69545;BMP180;56766;52.260;20.746;2022-08-03T14:36:16;100727.00;;;29.90
69545;BMP180;56766;52.260;20.746;2022-08-03T14:38:42;100727.60;;;29.90
69545;BMP180;56766;52.260;20.746;2022-08-03T14:41:09;100725.40;;;29.90
69545;BMP180;56766;52.260;20.746;2022-08-03T14:43:36;100719.00;;;29.90
69545;BMP180;56766;52.260;20.746;2022-08-03T14:46:03;100718.40;;;29.88